Time;durP1;ratioP1;P1;durP2;ratioP2;P2;SDS_P1;SDS_P2;PMS_P1;PMS_P2;Temp;Humidity;BMP_temperature;BMP_pressure;BME280_temperature;BME280_humidity;BME280_pressure;Samples;Min_cycle;Max_cycle;Signal;HPM_P1;HPM_P2
2024/01/11 00:01:26;;;;;;;37.60;19.55;;;;;;;;;;5103457;28;20023;-72
2024/01/11 00:03:51;;;;;;;42.47;19.27;;;;;;;;;;5101240;28;20072;-72
2024/01/11 00:06:16;;;;;;;36.53;17.92;;;;;;;;;;5107170;28;20261;-72
2024/01/11 00:08:41;;;;;;;38.67;18.75;;;;;;;;;;5102903;28;20009;-71
2024/01/11 00:11:06;;;;;;;38.22;18.35;;;;;;;;;;5106559;28;20034;-72
2024/01/11 00:13:32;;;;;;;39.00;20.10;;;;;;;;;;5103987;28;20081;-72
2024/01/11 00:15:57;;;;;;;41.10;19.42;;;;;;;;;;5106541;28;20054;-72
2024/01/11 00:18:22;;;;;;;40.13;18.65;;;;;;;;;;5105374;28;20027;-72
2024/01/11 00:20:47;;;;;;;38.70;17.93;;;;;;;;;;5103900;28;20024;-72
2024/01/11 00:23:13;;;;;;;39.42;18.92;;;;;;;;;;5106451;28;20346;-72
2024/01/11 00:25:38;;;;;;;35.90;18.25;;;;;;;;;;5108854;28;20012;-72
2024/01/11 00:28:03;;;;;;;35.50;19.98;;;;;;;;;;5109650;28;20554;-72
2024/01/11 00:30:28;;;;;;;37.10;18.98;;;;;;;;;;5114207;28;20023;-72
2024/01/11 00:32:53;;;;;;;38.90;20.03;;;;;;;;;;5103383;28;20030;-72
2024/01/11 00:35:19;;;;;;;40.38;18.35;;;;;;;;;;5111166;28;20266;-72
2024/01/11 00:37:44;;;;;;;35.80;18.92;;;;;;;;;;5104937;28;20123;-72
2024/01/11 00:40:10;;;;;;;42.78;18.30;;;;;;;;;;5111670;28;20099;-72
2024/01/11 00:42:35;;;;;;;35.17;18.55;;;;;;;;;;5103337;28;20058;-72
2024/01/11 00:45:00;;;;;;;37.00;18.85;;;;;;;;;;5105002;28;20342;-72
2024/01/11 00:47:25;;;;;;;41.35;19.05;;;;;;;;;;5110468;28;20038;-72
2024/01/11 00:49:50;;;;;;;36.90;18.17;;;;;;;;;;5112202;28;20028;-72
2024/01/11 00:52:16;;;;;;;40.53;20.55;;;;;;;;;;5104433;28;20281;-72
2024/01/11 00:54:41;;;;;;;41.80;18.25;;;;;;;;;;5111526;28;20078;-72
2024/01/11 00:57:06;;;;;;;35.90;18.42;;;;;;;;;;5104523;28;20028;-72
2024/01/11 00:59:31;;;;;;;36.05;18.73;;;;;;;;;;5110017;28;20027;-72
2024/01/11 01:01:56;;;;;;;33.28;17.92;;;;;;;;;;5108428;28;20074;-72
2024/01/11 01:04:22;;;;;;;38.08;18.90;;;;;;;;;;5109366;28;20019;-72
2024/01/11 01:06:47;;;;;;;40.20;18.70;;;;;;;;;;5104224;28;20023;-72
2024/01/11 01:09:13;;;;;;;38.53;18.60;;;;;;;;;;5106357;28;20046;-72
2024/01/11 01:11:38;;;;;;;40.67;19.60;;;;;;;;;;5114389;28;20023;-72
2024/01/11 01:14:03;;;;;;;39.63;19.10;;;;;;;;;;5105635;28;20023;-72
2024/01/11 01:16:28;;;;;;;37.20;18.07;;;;;;;;;;5109991;28;20019;-72
2024/01/11 01:18:54;;;;;;;39.50;18.98;;;;;;;;;;5103520;28;20637;-72
2024/01/11 01:21:19;;;;;;;39.70;18.88;;;;;;;;;;5102803;28;20024;-72
2024/01/11 01:23:44;;;;;;;33.22;18.00;;;;;;;;;;5106357;28;20043;-72
2024/01/11 01:26:09;;;;;;;38.60;18.57;;;;;;;;;;5105471;28;20024;-72
2024/01/11 01:28:34;;;;;;;44.10;19.57;;;;;;;;;;5107217;28;20273;-72
2024/01/11 01:30:59;;;;;;;40.15;18.55;;;;;;;;;;5108918;28;20258;-72
2024/01/11 01:33:25;;;;;;;40.03;18.67;;;;;;;;;;5106466;28;20019;-72
2024/01/11 01:35:50;;;;;;;44.53;20.95;;;;;;;;;;5105712;28;20467;-72
2024/01/11 01:38:17;;;;;;;36.33;18.77;;;;;;;;;;5105078;28;20034;-72
2024/01/11 01:40:42;;;;;;;36.60;18.88;;;;;;;;;;5108225;28;20050;-72
2024/01/11 01:43:10;;;;;;;37.92;19.15;;;;;;;;;;5103083;28;20522;-72
2024/01/11 01:45:35;;;;;;;41.35;19.98;;;;;;;;;;5105794;28;20024;-72
2024/01/11 01:48:01;;;;;;;41.47;18.33;;;;;;;;;;5111586;28;20544;-72
2024/01/11 01:50:26;;;;;;;40.92;20.08;;;;;;;;;;5107541;28;20024;-72
2024/01/11 01:52:51;;;;;;;38.33;19.98;;;;;;;;;;5105066;28;20020;-72
2024/01/11 01:55:17;;;;;;;39.80;19.33;;;;;;;;;;5103094;28;20151;-72
2024/01/11 01:57:43;;;;;;;38.25;19.52;;;;;;;;;;5112980;28;20035;-72
2024/01/11 02:00:10;;;;;;;39.00;20.15;;;;;;;;;;5109049;28;20489;-72
2024/01/11 02:02:35;;;;;;;39.97;19.80;;;;;;;;;;5103394;28;20092;-72
2024/01/11 02:05:00;;;;;;;37.42;18.65;;;;;;;;;;5110933;28;20545;-72
2024/01/11 02:07:25;;;;;;;42.17;19.77;;;;;;;;;;5108834;28;20547;-72
2024/01/11 02:09:51;;;;;;;38.20;19.23;;;;;;;;;;5111703;28;20027;-72
2024/01/11 02:12:16;;;;;;;43.63;19.92;;;;;;;;;;5103606;28;20035;-72
2024/01/11 02:14:42;;;;;;;41.47;19.27;;;;;;;;;;5109071;28;20041;-72
2024/01/11 02:17:07;;;;;;;40.75;20.35;;;;;;;;;;5104627;28;20463;-72
2024/01/11 02:19:34;;;;;;;45.08;20.63;;;;;;;;;;5112077;28;20027;-72
2024/01/11 02:22:00;;;;;;;40.13;19.70;;;;;;;;;;5104473;28;20033;-72
2024/01/11 02:24:25;;;;;;;41.67;18.88;;;;;;;;;;5110158;28;20026;-72
2024/01/11 02:26:57;;;;;;;41.08;18.92;;;;;;;;;;5109068;28;20039;-72
2024/01/11 02:29:22;;;;;;;41.80;20.88;;;;;;;;;;5113449;28;20471;-72
2024/01/11 02:31:48;;;;;;;45.70;20.17;;;;;;;;;;5112898;28;20047;-72
2024/01/11 02:34:13;;;;;;;38.03;18.80;;;;;;;;;;5108849;28;20497;-72
2024/01/11 02:36:38;;;;;;;43.30;20.13;;;;;;;;;;5101995;28;20023;-72
2024/01/11 02:39:04;;;;;;;34.65;18.42;;;;;;;;;;5106751;28;20019;-72
2024/01/11 02:41:31;;;;;;;37.67;18.92;;;;;;;;;;5106136;28;20078;-72
2024/01/11 02:43:56;;;;;;;41.85;19.42;;;;;;;;;;5108018;28;20503;-72
2024/01/11 02:46:21;;;;;;;40.40;19.48;;;;;;;;;;5104966;28;20089;-72
2024/01/11 02:48:46;;;;;;;40.05;18.38;;;;;;;;;;5103590;28;20022;-72
2024/01/11 02:51:11;;;;;;;38.88;19.42;;;;;;;;;;5103374;28;20462;-72
2024/01/11 02:53:37;;;;;;;40.83;20.05;;;;;;;;;;5109731;28;20064;-72
2024/01/11 02:56:02;;;;;;;39.80;18.73;;;;;;;;;;5104004;28;20130;-72
2024/01/11 02:58:27;;;;;;;40.35;19.15;;;;;;;;;;5102550;28;20297;-72
2024/01/11 03:00:52;;;;;;;48.13;19.77;;;;;;;;;;5104578;28;20118;-72
2024/01/11 03:03:17;;;;;;;40.00;19.73;;;;;;;;;;5104376;28;20281;-72
2024/01/11 03:05:42;;;;;;;43.42;20.70;;;;;;;;;;5107922;28;20061;-72
2024/01/11 03:08:08;;;;;;;40.88;20.30;;;;;;;;;;5106108;28;20432;-71
2024/01/11 03:10:33;;;;;;;38.20;19.20;;;;;;;;;;5103330;28;20031;-72
2024/01/11 03:12:58;;;;;;;42.45;19.70;;;;;;;;;;5103681;28;20023;-72
2024/01/11 03:15:23;;;;;;;40.60;19.38;;;;;;;;;;5105010;28;20483;-72
2024/01/11 03:17:48;;;;;;;41.90;20.08;;;;;;;;;;5101930;28;20114;-72
2024/01/11 03:20:14;;;;;;;41.93;19.83;;;;;;;;;;5110244;28;20098;-72
2024/01/11 03:22:44;;;;;;;40.25;19.77;;;;;;;;;;5105217;28;20630;-72
2024/01/11 03:25:10;;;;;;;40.25;20.10;;;;;;;;;;5109278;28;20023;-72
2024/01/11 03:27:35;;;;;;;40.92;19.38;;;;;;;;;;5102576;28;20028;-72
2024/01/11 03:30:00;;;;;;;39.40;19.88;;;;;;;;;;5108483;28;20171;-72
2024/01/11 03:32:25;;;;;;;40.95;19.17;;;;;;;;;;5100606;28;20052;-72
2024/01/11 03:34:50;;;;;;;44.23;20.77;;;;;;;;;;5100813;28;20027;-72
2024/01/11 03:37:16;;;;;;;42.17;19.15;;;;;;;;;;5106828;28;20297;-72
2024/01/11 03:39:41;;;;;;;42.58;19.83;;;;;;;;;;5103642;28;20024;-72
2024/01/11 03:42:06;;;;;;;36.70;18.50;;;;;;;;;;5109669;28;20038;-71
2024/01/11 03:44:32;;;;;;;41.80;19.83;;;;;;;;;;5104112;28;20258;-72
2024/01/11 03:46:57;;;;;;;39.55;19.33;;;;;;;;;;5105558;28;20019;-72
2024/01/11 03:49:22;;;;;;;39.38;19.45;;;;;;;;;;5103762;28;20028;-72
2024/01/11 03:51:47;;;;;;;41.67;19.77;;;;;;;;;;5103503;28;20027;-72
2024/01/11 03:54:12;;;;;;;39.53;19.92;;;;;;;;;;5103759;28;20292;-72
2024/01/11 03:56:39;;;;;;;41.77;19.30;;;;;;;;;;5098659;28;20031;-72
2024/01/11 03:59:05;;;;;;;45.13;20.15;;;;;;;;;;5101952;28;20281;-72
2024/01/11 04:01:30;;;;;;;45.53;21.15;;;;;;;;;;5103619;28;20451;-72
2024/01/11 04:03:56;;;;;;;40.03;19.67;;;;;;;;;;5105496;28;20072;-72
2024/01/11 04:06:22;;;;;;;42.37;20.63;;;;;;;;;;5105558;28;20040;-72
2024/01/11 04:08:47;;;;;;;40.67;20.55;;;;;;;;;;5106458;28;20292;-72
2024/01/11 04:11:12;;;;;;;46.20;20.95;;;;;;;;;;5104509;28;20513;-72
2024/01/11 04:13:39;;;;;;;45.83;20.80;;;;;;;;;;5106695;28;20101;-72
2024/01/11 04:16:05;;;;;;;43.40;20.63;;;;;;;;;;5110930;28;20024;-72
2024/01/11 04:18:30;;;;;;;43.42;19.90;;;;;;;;;;5109875;28;20039;-72
2024/01/11 04:20:55;;;;;;;53.07;21.80;;;;;;;;;;5107438;28;20347;-72
2024/01/11 04:23:21;;;;;;;38.40;18.77;;;;;;;;;;5105255;28;20360;-71
2024/01/11 04:25:46;;;;;;;42.72;20.15;;;;;;;;;;5110354;28;20410;-72
2024/01/11 04:28:11;;;;;;;49.25;21.65;;;;;;;;;;5107679;28;20022;-72
2024/01/11 04:30:37;;;;;;;42.42;20.30;;;;;;;;;;5105985;28;20103;-72
2024/01/11 04:33:02;;;;;;;45.85;20.48;;;;;;;;;;5104165;27;20024;-72
2024/01/11 04:35:27;;;;;;;42.65;19.52;;;;;;;;;;5107415;28;20031;-72
2024/01/11 04:37:52;;;;;;;41.27;19.43;;;;;;;;;;5103948;28;20483;-72
2024/01/11 04:40:18;;;;;;;42.67;19.27;;;;;;;;;;5107214;28;20273;-71
2024/01/11 04:42:43;;;;;;;45.83;20.97;;;;;;;;;;5106030;28;20019;-72
2024/01/11 04:45:08;;;;;;;42.00;19.88;;;;;;;;;;5110021;28;20281;-72
2024/01/11 04:47:33;;;;;;;39.72;19.80;;;;;;;;;;5110638;28;20058;-72
2024/01/11 04:49:58;;;;;;;40.17;18.88;;;;;;;;;;5107713;28;20023;-72
2024/01/11 04:52:24;;;;;;;42.45;19.73;;;;;;;;;;5106886;28;20053;-71
2024/01/11 04:54:49;;;;;;;45.92;20.38;;;;;;;;;;5106008;28;20032;-71
2024/01/11 04:57:14;;;;;;;38.63;19.55;;;;;;;;;;5105722;28;20047;-71
2024/01/11 04:59:39;;;;;;;40.90;18.52;;;;;;;;;;5108053;28;20031;-72
2024/01/11 05:02:04;;;;;;;39.47;19.73;;;;;;;;;;5104191;28;20020;-71
2024/01/11 05:04:30;;;;;;;39.97;18.98;;;;;;;;;;5113007;28;20027;-71
2024/01/11 05:06:55;;;;;;;42.50;19.73;;;;;;;;;;5104803;28;20020;-71
2024/01/11 05:09:20;;;;;;;40.00;19.15;;;;;;;;;;5110082;28;20031;-71
2024/01/11 05:11:45;;;;;;;36.47;18.60;;;;;;;;;;5104024;28;20089;-71
2024/01/11 05:14:11;;;;;;;40.30;19.42;;;;;;;;;;5107528;28;20361;-72
2024/01/11 05:16:36;;;;;;;41.80;19.67;;;;;;;;;;5105633;28;20102;-71
2024/01/11 05:19:01;;;;;;;33.63;18.10;;;;;;;;;;5112842;28;20031;-71
2024/01/11 05:21:26;;;;;;;42.65;19.90;;;;;;;;;;5106096;28;20290;-71
2024/01/11 05:23:52;;;;;;;45.00;19.63;;;;;;;;;;5109136;28;20016;-71
2024/01/11 05:26:17;;;;;;;45.83;19.83;;;;;;;;;;5110169;28;20022;-71
2024/01/11 05:28:43;;;;;;;42.47;19.77;;;;;;;;;;5105073;27;20024;-71
2024/01/11 05:31:09;;;;;;;43.08;19.13;;;;;;;;;;5108314;28;20566;-71
2024/01/11 05:33:34;;;;;;;42.42;19.33;;;;;;;;;;5107338;28;20076;-71
2024/01/11 05:35:59;;;;;;;42.20;20.70;;;;;;;;;;5110434;28;20106;-71
2024/01/11 05:38:25;;;;;;;42.85;19.42;;;;;;;;;;5105880;28;20049;-72
2024/01/11 05:40:50;;;;;;;39.85;20.15;;;;;;;;;;5107550;28;20019;-71
2024/01/11 05:43:15;;;;;;;40.67;19.40;;;;;;;;;;5103941;28;20034;-71
2024/01/11 05:45:40;;;;;;;40.60;19.55;;;;;;;;;;5111732;28;20012;-71
2024/01/11 05:48:05;;;;;;;38.88;19.05;;;;;;;;;;5102520;28;20474;-72
2024/01/11 05:50:31;;;;;;;42.80;19.52;;;;;;;;;;5109708;28;20040;-71
2024/01/11 05:52:56;;;;;;;39.58;20.00;;;;;;;;;;5104716;28;20020;-71
2024/01/11 05:55:21;;;;;;;42.15;20.80;;;;;;;;;;5104868;28;20043;-71
2024/01/11 05:57:47;;;;;;;38.42;18.73;;;;;;;;;;5113085;28;20034;-71
2024/01/11 06:00:12;;;;;;;39.13;19.23;;;;;;;;;;5108373;28;20521;-72
2024/01/11 06:02:37;;;;;;;40.97;19.83;;;;;;;;;;5106226;28;20095;-71
2024/01/11 06:05:02;;;;;;;35.00;17.15;;;;;;;;;;5104563;28;20410;-71
2024/01/11 06:07:29;;;;;;;38.83;17.92;;;;;;;;;;5104504;28;20465;-71
2024/01/11 06:09:54;;;;;;;40.45;18.67;;;;;;;;;;5106177;28;20019;-72
2024/01/11 06:12:19;;;;;;;37.58;18.48;;;;;;;;;;5102100;28;20024;-71
2024/01/11 06:14:44;;;;;;;36.70;18.02;;;;;;;;;;5112466;28;20057;-71
2024/01/11 06:17:11;;;;;;;41.95;19.67;;;;;;;;;;5102329;28;20032;-71
2024/01/11 06:19:36;;;;;;;36.92;17.98;;;;;;;;;;5109120;28;20114;-71
2024/01/11 06:22:02;;;;;;;39.00;17.77;;;;;;;;;;5101688;28;20054;-71
2024/01/11 06:24:27;;;;;;;42.42;19.20;;;;;;;;;;5108008;27;20015;-71
2024/01/11 06:26:52;;;;;;;39.25;18.42;;;;;;;;;;5101764;28;20031;-71
2024/01/11 06:29:17;;;;;;;36.17;17.97;;;;;;;;;;5109446;28;20028;-72
2024/01/11 06:31:42;;;;;;;44.83;19.73;;;;;;;;;;5102725;28;20284;-72
2024/01/11 06:34:08;;;;;;;39.25;18.10;;;;;;;;;;5106629;28;20023;-72
2024/01/11 06:36:33;;;;;;;37.80;19.27;;;;;;;;;;5104194;28;20012;-72
2024/01/11 06:38:58;;;;;;;36.92;18.63;;;;;;;;;;5107319;28;20028;-71
2024/01/11 06:41:24;;;;;;;42.92;18.60;;;;;;;;;;5106635;28;20521;-72
2024/01/11 06:43:49;;;;;;;36.92;17.70;;;;;;;;;;5106707;28;20019;-71
2024/01/11 06:46:19;;;;;;;37.20;18.52;;;;;;;;;;5104498;28;20421;-71
2024/01/11 06:48:44;;;;;;;36.97;18.80;;;;;;;;;;5106239;28;20053;-71
2024/01/11 06:51:09;;;;;;;38.75;18.98;;;;;;;;;;5102307;28;20020;-71
2024/01/11 06:53:36;;;;;;;38.80;17.20;;;;;;;;;;5104242;28;20042;-71
2024/01/11 06:56:01;;;;;;;37.90;18.38;;;;;;;;;;5108738;28;20062;-71
2024/01/11 06:58:26;;;;;;;37.03;18.02;;;;;;;;;;5104680;28;20111;-71
2024/01/11 07:00:51;;;;;;;36.10;17.38;;;;;;;;;;5099874;27;20038;-71
2024/01/11 07:03:17;;;;;;;39.38;17.67;;;;;;;;;;5101770;28;20429;-71
2024/01/11 07:05:42;;;;;;;34.75;17.45;;;;;;;;;;5106454;28;20027;-72
2024/01/11 07:08:08;;;;;;;39.95;19.50;;;;;;;;;;5103608;28;20026;-71
2024/01/11 07:10:33;;;;;;;41.17;19.50;;;;;;;;;;5103134;28;20012;-71
2024/01/11 07:12:58;;;;;;;41.45;18.65;;;;;;;;;;5103433;28;20055;-71
2024/01/11 07:15:23;;;;;;;39.50;19.20;;;;;;;;;;5107393;28;20012;-71
2024/01/11 07:17:49;;;;;;;40.00;19.48;;;;;;;;;;5105699;28;20019;-71
2024/01/11 07:20:16;;;;;;;38.47;18.85;;;;;;;;;;5102968;28;20455;-71
2024/01/11 07:22:41;;;;;;;39.05;18.88;;;;;;;;;;5096638;28;20020;-72
2024/01/11 07:25:07;;;;;;;40.40;18.55;;;;;;;;;;5106526;28;20016;-71
2024/01/11 07:27:32;;;;;;;39.70;19.27;;;;;;;;;;5104136;28;20015;-71
2024/01/11 07:29:58;;;;;;;39.55;18.42;;;;;;;;;;5108369;28;20517;-71
2024/01/11 07:32:23;;;;;;;40.45;18.58;;;;;;;;;;5097245;28;20047;-71
2024/01/11 07:34:48;;;;;;;40.75;18.50;;;;;;;;;;5105085;28;20039;-71
2024/01/11 07:37:14;;;;;;;33.50;17.38;;;;;;;;;;5114000;28;20462;-71
2024/01/11 07:39:39;;;;;;;43.28;20.40;;;;;;;;;;5106904;28;20057;-71
2024/01/11 07:42:04;;;;;;;43.00;19.35;;;;;;;;;;5107479;28;20016;-71
2024/01/11 07:44:29;;;;;;;37.10;18.35;;;;;;;;;;5108840;28;20070;-71
2024/01/11 07:46:55;;;;;;;39.97;19.70;;;;;;;;;;5104403;28;20475;-71
2024/01/11 07:49:20;;;;;;;37.85;19.98;;;;;;;;;;5110742;28;20020;-71
2024/01/11 07:51:45;;;;;;;37.92;18.75;;;;;;;;;;5105532;28;20047;-71
2024/01/11 07:54:10;;;;;;;37.60;17.63;;;;;;;;;;5110933;28;20028;-71
2024/01/11 07:56:35;;;;;;;42.53;19.90;;;;;;;;;;5105536;28;20058;-71
2024/01/11 07:59:01;;;;;;;37.72;18.52;;;;;;;;;;5112058;28;20107;-71
2024/01/11 08:01:26;;;;;;;34.65;17.08;;;;;;;;;;5105355;28;20018;-72
2024/01/11 08:03:54;;;;;;;36.13;18.13;;;;;;;;;;5112121;28;20026;-71
2024/01/11 08:06:20;;;;;;;36.08;17.77;;;;;;;;;;5111731;28;20032;-71
2024/01/11 08:08:51;;;;;;;37.78;18.15;;;;;;;;;;5112371;28;20138;-71
2024/01/11 08:11:16;;;;;;;33.22;17.42;;;;;;;;;;5109666;28;20015;-71
2024/01/11 08:13:41;;;;;;;37.17;17.63;;;;;;;;;;5106459;28;20023;-71
2024/01/11 08:16:09;;;;;;;31.15;16.67;;;;;;;;;;5107435;28;20523;-71
2024/01/11 08:18:34;;;;;;;38.83;18.63;;;;;;;;;;5106189;28;20081;-71
2024/01/11 08:20:59;;;;;;;38.70;19.00;;;;;;;;;;5111879;28;20016;-71
2024/01/11 08:23:24;;;;;;;37.20;18.60;;;;;;;;;;5106059;28;20434;-71
2024/01/11 08:25:50;;;;;;;32.55;17.42;;;;;;;;;;5111213;28;20035;-71
2024/01/11 08:28:15;;;;;;;36.50;17.33;;;;;;;;;;5115125;28;20028;-72
2024/01/11 08:30:42;;;;;;;36.00;18.00;;;;;;;;;;5110035;28;20023;-71
2024/01/11 08:33:07;;;;;;;35.17;16.88;;;;;;;;;;5105844;28;20012;-71
2024/01/11 08:35:32;;;;;;;35.43;17.93;;;;;;;;;;5110532;28;20106;-70
2024/01/11 08:37:58;;;;;;;37.55;18.98;;;;;;;;;;5103825;28;20301;-71
2024/01/11 08:40:23;;;;;;;37.17;18.27;;;;;;;;;;5107419;28;20046;-71
2024/01/11 08:42:48;;;;;;;35.72;18.67;;;;;;;;;;5104695;28;20043;-71
2024/01/11 08:45:17;;;;;;;41.65;19.45;;;;;;;;;;5106259;28;20070;-71
2024/01/11 08:47:43;;;;;;;37.45;19.48;;;;;;;;;;5106371;28;20031;-71
2024/01/11 08:50:11;;;;;;;37.40;19.20;;;;;;;;;;5108783;28;20379;-72
2024/01/11 08:52:39;;;;;;;34.35;18.48;;;;;;;;;;5113233;28;20038;-72
2024/01/11 08:55:04;;;;;;;35.63;19.05;;;;;;;;;;5105090;28;20044;-71
2024/01/11 08:57:29;;;;;;;35.90;19.27;;;;;;;;;;5107101;28;20441;-71
2024/01/11 08:59:54;;;;;;;44.95;20.08;;;;;;;;;;5111890;28;20011;-71
2024/01/11 09:02:20;;;;;;;38.83;20.70;;;;;;;;;;5107944;28;20557;-71
2024/01/11 09:04:47;;;;;;;41.38;20.50;;;;;;;;;;5111508;28;20359;-71
2024/01/11 09:07:12;;;;;;;39.58;19.73;;;;;;;;;;5099881;28;20030;-71
2024/01/11 09:09:37;;;;;;;37.30;20.00;;;;;;;;;;5107687;28;20099;-71
2024/01/11 09:12:02;;;;;;;37.85;18.88;;;;;;;;;;5102761;28;20016;-71
2024/01/11 09:14:28;;;;;;;38.38;19.48;;;;;;;;;;5110034;28;20817;-71
2024/01/11 09:16:53;;;;;;;42.77;20.57;;;;;;;;;;5099497;28;20070;-71
2024/01/11 09:19:18;;;;;;;39.17;19.27;;;;;;;;;;5109698;28;20277;-71
2024/01/11 09:21:43;;;;;;;42.60;20.45;;;;;;;;;;5104909;28;20374;-71
2024/01/11 09:24:08;;;;;;;37.15;19.85;;;;;;;;;;5111584;28;20023;-71
2024/01/11 09:26:36;;;;;;;35.47;19.00;;;;;;;;;;5110393;28;20363;-71
2024/01/11 09:29:01;;;;;;;43.95;23.42;;;;;;;;;;5108597;28;20392;-71
2024/01/11 09:31:26;;;;;;;36.33;20.20;;;;;;;;;;5103103;28;20546;-72
2024/01/11 09:33:52;;;;;;;41.15;21.63;;;;;;;;;;5105499;28;20024;-71
2024/01/11 09:36:17;;;;;;;38.40;20.77;;;;;;;;;;5102248;28;20024;-72
2024/01/11 09:38:43;;;;;;;34.97;20.17;;;;;;;;;;5108519;28;20043;-71
2024/01/11 09:41:09;;;;;;;37.35;20.30;;;;;;;;;;5111955;28;20107;-73
2024/01/11 09:43:34;;;;;;;42.63;21.30;;;;;;;;;;5112417;28;20016;-71
2024/01/11 09:46:02;;;;;;;38.70;20.40;;;;;;;;;;5105872;28;20093;-71
2024/01/11 09:48:28;;;;;;;35.95;20.42;;;;;;;;;;5105886;28;20020;-71
2024/01/11 09:50:54;;;;;;;37.17;21.80;;;;;;;;;;5112964;28;20118;-71
2024/01/11 09:53:20;;;;;;;33.85;19.75;;;;;;;;;;5106057;28;20042;-71
2024/01/11 09:55:46;;;;;;;38.00;20.08;;;;;;;;;;5111452;28;20119;-71
2024/01/11 09:58:11;;;;;;;34.83;20.17;;;;;;;;;;5106457;28;20126;-71
2024/01/11 10:00:37;;;;;;;40.47;20.08;;;;;;;;;;5108849;28;20380;-71
2024/01/11 10:03:02;;;;;;;40.03;20.67;;;;;;;;;;5104408;28;20046;-71
2024/01/11 10:05:29;;;;;;;38.00;20.20;;;;;;;;;;5109509;28;20416;-71
2024/01/11 10:07:54;;;;;;;40.58;20.55;;;;;;;;;;5109583;28;20451;-71
2024/01/11 10:10:19;;;;;;;35.58;19.83;;;;;;;;;;5109077;28;20027;-71
2024/01/11 10:12:44;;;;;;;34.33;19.55;;;;;;;;;;5107396;28;20012;-72
2024/01/11 10:15:10;;;;;;;40.80;20.55;;;;;;;;;;5111915;28;20019;-71
2024/01/11 10:17:42;;;;;;;36.58;19.95;;;;;;;;;;5112389;28;20436;-74
2024/01/11 10:20:10;;;;;;;43.92;19.90;;;;;;;;;;5107020;28;20023;-73
2024/01/11 10:22:36;;;;;;;35.55;20.02;;;;;;;;;;5102875;28;20031;-73
2024/01/11 10:25:12;;;;;;;38.72;20.52;;;;;;;;;;5110563;28;20016;-72
2024/01/11 10:27:38;;;;;;;34.38;19.23;;;;;;;;;;5101854;28;20532;-72
2024/01/11 10:30:03;;;;;;;34.90;18.67;;;;;;;;;;5112493;28;20024;-73
2024/01/11 10:32:28;;;;;;;38.05;21.02;;;;;;;;;;5105045;28;20494;-73
2024/01/11 10:34:53;;;;;;;39.58;21.23;;;;;;;;;;5103676;28;20028;-72
2024/01/11 10:37:19;;;;;;;39.57;21.20;;;;;;;;;;5105936;28;20471;-75
2024/01/11 10:39:46;;;;;;;44.00;21.15;;;;;;;;;;5101994;28;20371;-72
2024/01/11 10:42:13;;;;;;;42.15;21.55;;;;;;;;;;5103499;28;20015;-71
2024/01/11 10:44:42;;;;;;;38.83;21.20;;;;;;;;;;5104032;28;20077;-72
2024/01/11 10:47:09;;;;;;;38.50;21.23;;;;;;;;;;5103432;28;20391;-73
2024/01/11 10:49:38;;;;;;;40.60;20.70;;;;;;;;;;5103776;28;20064;-72
2024/01/11 10:52:06;;;;;;;40.13;20.20;;;;;;;;;;5102208;28;20028;-72
2024/01/11 10:54:33;;;;;;;35.92;20.00;;;;;;;;;;5106583;28;20616;-72
2024/01/11 10:57:04;;;;;;;40.60;22.55;;;;;;;;;;5100845;28;20032;-73
2024/01/11 10:59:31;;;;;;;36.35;19.65;;;;;;;;;;5106423;28;20425;-72
2024/01/11 11:01:57;;;;;;;36.55;19.42;;;;;;;;;;5103732;28;20012;-72
2024/01/11 11:04:23;;;;;;;34.53;19.35;;;;;;;;;;5108960;28;20031;-71
2024/01/11 11:06:55;;;;;;;39.45;20.83;;;;;;;;;;5106248;28;20456;-72
2024/01/11 11:09:21;;;;;;;40.67;19.83;;;;;;;;;;5103205;28;20020;-72
2024/01/11 11:11:46;;;;;;;38.35;20.55;;;;;;;;;;5103853;28;20030;-71
2024/01/11 11:14:14;;;;;;;41.03;19.55;;;;;;;;;;5107575;28;20015;-72
2024/01/11 11:16:39;;;;;;;35.90;19.77;;;;;;;;;;5106072;27;20019;-71
2024/01/11 11:19:06;;;;;;;37.45;20.42;;;;;;;;;;5105541;28;20481;-71
2024/01/11 11:21:31;;;;;;;40.85;20.08;;;;;;;;;;5103845;28;20020;-72
2024/01/11 11:23:56;;;;;;;41.00;19.50;;;;;;;;;;5107654;28;20026;-72
2024/01/11 11:26:21;;;;;;;37.35;19.75;;;;;;;;;;5106208;28;20020;-71
2024/01/11 11:28:48;;;;;;;40.50;21.10;;;;;;;;;;5105802;28;20107;-72
2024/01/11 11:31:13;;;;;;;32.78;19.10;;;;;;;;;;5108980;28;20315;-72
2024/01/11 11:33:38;;;;;;;38.45;19.15;;;;;;;;;;5109265;28;20024;-71
2024/01/11 11:36:03;;;;;;;38.90;19.85;;;;;;;;;;5100408;28;20028;-72
2024/01/11 11:38:30;;;;;;;39.08;20.00;;;;;;;;;;5105621;28;20084;-72
2024/01/11 11:40:56;;;;;;;40.50;20.85;;;;;;;;;;5106529;28;20020;-72
2024/01/11 11:43:21;;;;;;;41.78;21.27;;;;;;;;;;5103752;28;20454;-72
2024/01/11 11:45:47;;;;;;;37.35;20.55;;;;;;;;;;5103710;28;20077;-72
2024/01/11 11:48:31;;;;;;;39.88;21.75;;;;;;;;;;5102033;28;20027;-72
2024/01/11 11:51:05;;;;;;;42.80;19.63;;;;;;;;;;5105936;28;20551;-72
2024/01/11 11:53:33;;;;;;;36.10;20.13;;;;;;;;;;5104011;28;20081;-72
2024/01/11 11:55:58;;;;;;;40.88;20.58;;;;;;;;;;5103142;28;20047;-71
2024/01/11 11:58:23;;;;;;;40.92;19.75;;;;;;;;;;5110780;28;20031;-72
2024/01/11 12:00:48;;;;;;;38.85;20.08;;;;;;;;;;5107123;28;20065;-72
2024/01/11 12:03:14;;;;;;;37.63;21.67;;;;;;;;;;5103489;28;20019;-72
2024/01/11 12:05:39;;;;;;;39.67;21.25;;;;;;;;;;5106345;28;20021;-71
2024/01/11 12:08:04;;;;;;;37.15;20.85;;;;;;;;;;5105697;28;20064;-72
2024/01/11 12:10:29;;;;;;;38.50;20.77;;;;;;;;;;5109478;28;20099;-71
2024/01/11 12:12:55;;;;;;;40.28;22.05;;;;;;;;;;5101395;28;20486;-71
2024/01/11 12:15:20;;;;;;;39.53;20.05;;;;;;;;;;5105818;28;20019;-72
2024/01/11 12:17:45;;;;;;;41.70;20.43;;;;;;;;;;5107585;28;20034;-72
2024/01/11 12:20:11;;;;;;;35.30;19.52;;;;;;;;;;5104598;28;20741;-72
2024/01/11 12:22:38;;;;;;;40.83;20.63;;;;;;;;;;5104249;28;20423;-72
2024/01/11 12:25:04;;;;;;;33.70;18.83;;;;;;;;;;5109818;28;20478;-71
2024/01/11 12:27:30;;;;;;;37.83;20.05;;;;;;;;;;5109471;28;20103;-72
2024/01/11 12:29:55;;;;;;;37.92;20.08;;;;;;;;;;5111236;28;20024;-72
2024/01/11 12:32:22;;;;;;;38.78;19.98;;;;;;;;;;5106857;28;20020;-72
2024/01/11 12:34:47;;;;;;;41.40;20.58;;;;;;;;;;5108106;28;20058;-72
2024/01/11 12:37:12;;;;;;;44.20;20.27;;;;;;;;;;5109839;28;20055;-72
2024/01/11 12:39:37;;;;;;;39.90;21.40;;;;;;;;;;5109104;28;20044;-72
2024/01/11 12:42:03;;;;;;;35.33;19.67;;;;;;;;;;5106555;28;20304;-72
2024/01/11 12:44:28;;;;;;;37.97;19.65;;;;;;;;;;5112266;28;20023;-72
2024/01/11 12:46:53;;;;;;;35.70;20.05;;;;;;;;;;5105046;28;20016;-72
2024/01/11 12:49:18;;;;;;;39.00;21.65;;;;;;;;;;5113052;28;20065;-73
2024/01/11 12:51:44;;;;;;;39.03;19.88;;;;;;;;;;5106278;28;20073;-72
2024/01/11 12:54:18;;;;;;;36.03;19.87;;;;;;;;;;5109092;28;20028;-72
2024/01/11 12:56:44;;;;;;;40.33;21.05;;;;;;;;;;5102822;28;20614;-72
2024/01/11 12:59:09;;;;;;;44.13;23.40;;;;;;;;;;5106787;28;20475;-72
2024/01/11 13:01:35;;;;;;;40.20;23.10;;;;;;;;;;5109037;28;20361;-72
2024/01/11 13:04:02;;;;;;;39.90;21.52;;;;;;;;;;5108677;28;20016;-72
2024/01/11 13:06:27;;;;;;;37.38;21.67;;;;;;;;;;5112354;28;20034;-72
2024/01/11 13:08:53;;;;;;;41.92;23.10;;;;;;;;;;5108787;28;20370;-72
2024/01/11 13:11:21;;;;;;;39.55;22.35;;;;;;;;;;5105047;28;20023;-72
2024/01/11 13:13:47;;;;;;;42.63;23.42;;;;;;;;;;5106058;28;20024;-72
2024/01/11 13:16:14;;;;;;;46.85;24.42;;;;;;;;;;5106261;28;20067;-72
2024/01/11 13:18:39;;;;;;;42.92;23.77;;;;;;;;;;5104752;28;20047;-72
2024/01/11 13:21:06;;;;;;;42.03;23.05;;;;;;;;;;5110247;28;20011;-72
2024/01/11 13:23:31;;;;;;;40.35;21.58;;;;;;;;;;5109313;28;20720;-73
2024/01/11 13:25:56;;;;;;;36.67;22.03;;;;;;;;;;5110640;28;20016;-73
2024/01/11 13:28:22;;;;;;;39.63;21.53;;;;;;;;;;5112281;28;20280;-73
2024/01/11 13:30:48;;;;;;;35.15;21.20;;;;;;;;;;5109967;28;20269;-73
2024/01/11 13:33:16;;;;;;;36.92;20.55;;;;;;;;;;5104749;28;20016;-73
2024/01/11 13:35:44;;;;;;;35.67;20.42;;;;;;;;;;5108206;27;20035;-73
2024/01/11 13:38:10;;;;;;;34.70;20.75;;;;;;;;;;5105457;28;20436;-73
2024/01/11 13:40:35;;;;;;;34.92;19.30;;;;;;;;;;5105288;28;20020;-73
2024/01/11 13:43:04;;;;;;;35.30;19.85;;;;;;;;;;5104527;28;20429;-73
2024/01/11 13:45:31;;;;;;;36.55;19.15;;;;;;;;;;5109720;28;20093;-73
2024/01/11 13:47:57;;;;;;;32.45;18.25;;;;;;;;;;5103779;28;20019;-73
2024/01/11 13:50:24;;;;;;;23.27;12.77;;;;;;;;;;5105928;28;20015;-73
2024/01/11 13:52:49;;;;;;;19.95;10.10;;;;;;;;;;5104484;28;20027;-73
2024/01/11 13:55:14;;;;;;;19.20;10.10;;;;;;;;;;5104804;28;20094;-73
2024/01/11 13:57:40;;;;;;;17.30;10.57;;;;;;;;;;5105580;28;20325;-73
2024/01/11 14:00:05;;;;;;;19.30;10.63;;;;;;;;;;5103653;28;20331;-73
2024/01/11 14:02:31;;;;;;;18.55;9.40;;;;;;;;;;5105699;28;20057;-73
2024/01/11 14:04:56;;;;;;;18.58;8.95;;;;;;;;;;5105347;28;20372;-73
2024/01/11 14:07:22;;;;;;;18.85;9.98;;;;;;;;;;5103515;28;20016;-73